createdAt,value
2022-10-24T00:01:26.755Z,15.70
2022-10-24T00:03:54.090Z,15.70
2022-10-24T00:06:22.043Z,15.70
2022-10-24T00:08:50.331Z,15.70
2022-10-24T00:11:23.306Z,15.70
2022-10-24T00:13:52.566Z,15.70
2022-10-24T00:16:20.395Z,15.70
2022-10-24T00:18:48.413Z,15.70
2022-10-24T00:21:17.962Z,15.70
2022-10-24T00:23:45.508Z,15.70
2022-10-24T00:26:13.880Z,15.70
2022-10-24T00:28:41.805Z,15.70
2022-10-24T00:31:16.218Z,15.60
2022-10-24T00:33:45.193Z,15.60
2022-10-24T00:36:19.905Z,15.60
2022-10-24T00:38:48.524Z,15.60
2022-10-24T00:41:19.162Z,15.60
2022-10-24T00:43:47.151Z,15.60
2022-10-24T00:46:18.019Z,15.60
2022-10-24T00:48:55.088Z,15.60
2022-10-24T00:51:28.878Z,15.60
2022-10-24T00:54:08.737Z,15.60
2022-10-24T00:56:44.132Z,15.60
2022-10-24T00:59:15.214Z,15.60
2022-10-24T01:01:46.239Z,15.60
2022-10-24T01:04:16.889Z,15.60
2022-10-24T01:07:17.560Z,15.60
2022-10-24T01:10:18.800Z,15.50
2022-10-24T01:13:40.379Z,15.50
2022-10-24T01:16:17.313Z,15.50
2022-10-24T01:19:11.408Z,15.40
2022-10-24T01:21:55.778Z,15.40
2022-10-24T01:25:10.209Z,15.40
2022-10-24T01:28:00.181Z,15.40
2022-10-24T01:30:37.670Z,15.40
2022-10-24T01:33:30.165Z,15.40
2022-10-24T01:36:18.249Z,15.40
2022-10-24T01:38:59.576Z,15.40
2022-10-24T01:41:31.278Z,15.40
2022-10-24T01:44:15.136Z,15.40
2022-10-24T01:46:52.102Z,15.40
2022-10-24T01:49:28.715Z,15.40
2022-10-24T01:52:02.452Z,15.50
2022-10-24T01:54:31.870Z,15.50
2022-10-24T01:56:59.367Z,15.50
2022-10-24T01:59:29.278Z,15.50
2022-10-24T02:02:12.243Z,15.50
2022-10-24T02:04:48.435Z,15.50
2022-10-24T02:07:18.558Z,15.50
2022-10-24T02:09:53.598Z,15.50
2022-10-24T02:12:25.614Z,15.40
2022-10-24T02:15:04.592Z,15.40
2022-10-24T02:17:32.362Z,15.50
2022-10-24T02:20:00.706Z,15.50
2022-10-24T02:22:47.849Z,15.50
2022-10-24T02:25:27.950Z,15.50
2022-10-24T02:28:10.342Z,15.40
2022-10-24T02:30:50.493Z,15.40
2022-10-24T02:33:18.882Z,15.50
2022-10-24T02:35:49.136Z,15.40
2022-10-24T02:38:29.016Z,15.40
2022-10-24T02:41:00.193Z,15.30
2022-10-24T02:43:30.542Z,15.30
2022-10-24T02:45:59.514Z,15.40
2022-10-24T02:48:38.918Z,15.40
2022-10-24T02:51:07.576Z,15.40
2022-10-24T02:53:37.286Z,15.40
2022-10-24T02:56:05.154Z,15.40
2022-10-24T02:58:32.507Z,15.40
2022-10-24T03:00:59.947Z,15.30
2022-10-24T03:03:27.300Z,15.30
2022-10-24T03:05:54.549Z,15.30
2022-10-24T03:08:22.046Z,15.30
2022-10-24T03:10:49.292Z,15.30
2022-10-24T03:13:16.832Z,15.40
2022-10-24T03:15:44.333Z,15.40
2022-10-24T03:18:11.821Z,15.40
2022-10-24T03:20:39.133Z,15.40
2022-10-24T03:23:08.317Z,15.40
2022-10-24T03:25:35.836Z,15.40
2022-10-24T03:28:03.369Z,15.40
2022-10-24T03:30:30.596Z,15.40
2022-10-24T03:32:57.915Z,15.40
2022-10-24T03:35:25.285Z,15.40
2022-10-24T03:37:52.502Z,15.40
2022-10-24T03:40:19.983Z,15.40
2022-10-24T03:42:47.670Z,15.50
2022-10-24T03:45:15.861Z,15.50
2022-10-24T03:47:43.230Z,15.50
2022-10-24T03:50:10.451Z,15.50
2022-10-24T03:52:37.698Z,15.50
2022-10-24T03:55:05.558Z,15.50
2022-10-24T03:57:32.978Z,15.50
2022-10-24T04:00:06.757Z,15.50
2022-10-24T04:02:34.295Z,15.50
2022-10-24T04:05:01.760Z,15.50
2022-10-24T04:07:29.241Z,15.50
2022-10-24T04:09:58.126Z,15.50
2022-10-24T04:12:26.663Z,15.50
2022-10-24T04:14:53.805Z,15.50
2022-10-24T04:17:21.121Z,15.50
2022-10-24T04:19:48.721Z,15.50
2022-10-24T04:22:16.700Z,15.50
2022-10-24T04:24:43.955Z,15.50
2022-10-24T04:27:11.270Z,15.50
2022-10-24T04:29:38.493Z,15.50
2022-10-24T04:32:05.981Z,15.50
2022-10-24T04:34:37.078Z,15.60
2022-10-24T04:37:04.986Z,15.60
2022-10-24T04:39:32.374Z,15.60
2022-10-24T04:42:00.024Z,15.60
2022-10-24T04:44:27.608Z,15.60
2022-10-24T04:46:54.838Z,15.70
2022-10-24T04:49:22.088Z,15.70
2022-10-24T04:51:49.409Z,15.70
2022-10-24T04:54:16.784Z,15.70
2022-10-24T04:56:44.035Z,15.80
2022-10-24T04:59:12.640Z,15.80
2022-10-24T05:01:39.908Z,15.80
2022-10-24T05:04:08.471Z,15.80
2022-10-24T05:06:40.296Z,15.80
2022-10-24T05:09:10.079Z,15.70
2022-10-24T05:11:38.427Z,15.70
2022-10-24T05:14:05.729Z,15.60
2022-10-24T05:16:33.533Z,15.60
2022-10-24T05:19:00.861Z,15.50
2022-10-24T05:21:28.469Z,15.40
2022-10-24T05:23:55.950Z,15.40
2022-10-24T05:26:23.297Z,15.40
2022-10-24T05:28:52.535Z,15.40
2022-10-24T05:31:20.564Z,15.40
2022-10-24T05:33:47.929Z,15.40
2022-10-24T05:36:16.308Z,15.50
2022-10-24T05:38:43.663Z,15.50
2022-10-24T05:41:10.990Z,15.50
2022-10-24T05:43:38.594Z,15.50
2022-10-24T05:46:07.475Z,15.60
2022-10-24T05:48:36.261Z,15.60
2022-10-24T05:51:05.966Z,15.60
2022-10-24T05:53:33.196Z,15.70
2022-10-24T05:56:00.515Z,15.70
2022-10-24T05:58:27.848Z,15.80
2022-10-24T06:00:55.255Z,15.80
2022-10-24T06:03:23.624Z,15.80
2022-10-24T06:05:51.551Z,15.80
2022-10-24T06:08:19.180Z,15.80
2022-10-24T06:10:50.134Z,15.90
2022-10-24T06:13:18.494Z,15.90
2022-10-24T06:15:46.046Z,15.90
2022-10-24T06:18:13.423Z,15.90
2022-10-24T06:20:40.999Z,15.90
2022-10-24T06:23:08.386Z,15.90
2022-10-24T06:25:36.082Z,15.90
2022-10-24T06:28:03.585Z,15.90
2022-10-24T06:30:30.964Z,15.90
2022-10-24T06:32:58.297Z,16.00
2022-10-24T06:35:25.572Z,16.00
2022-10-24T06:37:54.103Z,16.00
2022-10-24T06:40:23.138Z,16.00
2022-10-24T06:42:50.746Z,16.00
2022-10-24T06:45:20.859Z,16.10
2022-10-24T06:47:51.807Z,16.10
2022-10-24T06:50:21.539Z,16.10
2022-10-24T06:52:49.206Z,16.20
2022-10-24T06:55:18.078Z,16.20
2022-10-24T06:57:45.620Z,16.20
2022-10-24T07:00:15.195Z,16.20
2022-10-24T07:02:42.753Z,16.20
2022-10-24T07:05:12.830Z,16.20
2022-10-24T07:07:42.589Z,16.20
2022-10-24T07:10:14.331Z,16.20
2022-10-24T07:12:43.558Z,16.20
2022-10-24T07:15:12.459Z,16.30
2022-10-24T07:17:45.242Z,16.20
2022-10-24T07:20:13.903Z,16.30
2022-10-24T07:22:42.156Z,16.30
2022-10-24T07:25:10.141Z,16.30
2022-10-24T07:27:37.566Z,16.30
2022-10-24T07:30:08.066Z,16.30
2022-10-24T07:32:35.741Z,16.30
2022-10-24T07:35:03.124Z,16.30
2022-10-24T07:37:30.570Z,16.30
2022-10-24T07:39:57.921Z,16.30
2022-10-24T07:42:25.394Z,16.30
2022-10-24T07:44:52.630Z,16.30
2022-10-24T07:47:19.864Z,16.30
2022-10-24T07:49:47.157Z,16.30
2022-10-24T07:52:14.678Z,16.30
2022-10-24T07:54:41.979Z,16.30
2022-10-24T07:57:09.245Z,16.30
2022-10-24T07:59:42.079Z,16.30
2022-10-24T08:02:12.915Z,16.30
2022-10-24T08:04:41.111Z,16.30
2022-10-24T08:07:13.681Z,16.40
2022-10-24T08:09:46.173Z,16.40
2022-10-24T08:12:14.139Z,16.50
2022-10-24T08:14:42.448Z,16.50
2022-10-24T08:17:10.778Z,16.60
2022-10-24T08:19:44.063Z,16.60
2022-10-24T08:22:12.415Z,16.60
2022-10-24T08:24:39.820Z,16.70
2022-10-24T08:27:08.687Z,16.70
2022-10-24T08:29:36.682Z,16.80
2022-10-24T08:32:06.810Z,16.80
2022-10-24T08:34:34.756Z,16.90
2022-10-24T08:37:01.973Z,17.00
2022-10-24T08:39:29.340Z,17.00
2022-10-24T08:42:12.850Z,17.10
2022-10-24T08:44:43.946Z,17.20
2022-10-24T08:50:29.386Z,17.20
2022-10-24T08:53:09.380Z,17.30
2022-10-24T08:55:50.004Z,17.20
2022-10-24T08:58:35.692Z,17.20
2022-10-24T09:01:13.358Z,17.10
2022-10-24T09:04:00.312Z,17.10
2022-10-24T09:06:32.125Z,17.10
2022-10-24T09:09:23.381Z,17.10
2022-10-24T09:12:01.936Z,17.10
2022-10-24T09:14:36.887Z,17.10
2022-10-24T09:17:20.435Z,17.10
2022-10-24T09:19:58.153Z,17.20
2022-10-24T09:22:30.626Z,17.30
2022-10-24T09:25:06.478Z,17.50
2022-10-24T09:27:40.377Z,17.60
2022-10-24T09:30:19.403Z,17.80
2022-10-24T09:32:47.372Z,18.00
2022-10-24T09:35:25.872Z,18.30
2022-10-24T09:38:18.983Z,18.60
2022-10-24T09:40:52.758Z,18.80
2022-10-24T09:43:43.574Z,18.90
2022-10-24T09:46:26.600Z,19.00
2022-10-24T09:49:15.339Z,19.10
2022-10-24T09:51:48.159Z,19.50
2022-10-24T09:54:28.030Z,19.60
2022-10-24T09:57:16.816Z,19.80
2022-10-24T09:59:48.157Z,19.90
2022-10-24T10:02:24.408Z,20.00
2022-10-24T10:05:04.204Z,20.00
2022-10-24T10:07:37.232Z,20.10
2022-10-24T10:10:07.200Z,20.10
2022-10-24T10:12:48.313Z,20.10
2022-10-24T10:15:39.743Z,20.10
2022-10-24T10:18:40.189Z,20.20
2022-10-24T10:21:21.508Z,20.30
2022-10-24T10:23:51.637Z,20.30
2022-10-24T10:26:29.465Z,20.30
2022-10-24T10:29:20.908Z,20.40
2022-10-24T10:32:18.308Z,20.40
2022-10-24T10:35:04.763Z,20.40
2022-10-24T10:37:38.930Z,20.30
2022-10-24T10:40:25.949Z,20.40
2022-10-24T10:43:29.884Z,20.30
2022-10-24T10:46:42.533Z,20.40
2022-10-24T10:49:32.630Z,20.30
2022-10-24T10:52:14.593Z,20.40
2022-10-24T10:55:12.194Z,20.40
2022-10-24T10:58:09.827Z,20.40
2022-10-24T11:00:52.513Z,20.50
2022-10-24T11:03:39.630Z,20.40
2022-10-24T11:06:07.374Z,20.40
2022-10-24T11:09:08.254Z,20.40
2022-10-24T11:11:43.486Z,20.40
2022-10-24T11:14:28.727Z,20.50
2022-10-24T11:17:04.620Z,20.60
2022-10-24T11:20:26.219Z,20.50
2022-10-24T11:23:07.497Z,20.60
2022-10-24T11:25:44.946Z,20.50
2022-10-24T11:28:25.788Z,20.60
2022-10-24T11:31:23.387Z,20.60
2022-10-24T11:34:00.324Z,20.50
2022-10-24T11:36:54.964Z,20.60
2022-10-24T11:39:49.523Z,20.60
2022-10-24T11:42:30.140Z,20.80
2022-10-24T11:45:03.506Z,20.90
2022-10-24T11:48:13.504Z,21.00
2022-10-24T11:50:54.244Z,21.00
2022-10-24T11:53:33.542Z,20.90
2022-10-24T11:56:10.928Z,20.80
2022-10-24T11:58:52.224Z,20.80
2022-10-24T12:01:47.790Z,20.80
2022-10-24T12:04:45.829Z,20.80
2022-10-24T12:07:31.658Z,20.80
2022-10-24T12:10:36.199Z,20.80
2022-10-24T12:13:34.962Z,20.80
2022-10-24T12:16:39.302Z,20.70
2022-10-24T12:19:13.130Z,20.70
2022-10-24T12:21:48.796Z,20.70
2022-10-24T12:24:33.205Z,20.80
2022-10-24T12:27:03.189Z,20.80
2022-10-24T12:29:33.811Z,20.70
2022-10-24T12:32:30.832Z,20.80
2022-10-24T12:35:29.878Z,20.70
2022-10-24T12:37:50.731Z,20.70
2022-10-24T12:40:47.302Z,20.70
2022-10-24T12:43:30.127Z,20.50
2022-10-24T12:46:09.391Z,20.40
2022-10-24T12:48:44.812Z,20.10
2022-10-24T12:51:54.386Z,20.10
2022-10-24T12:54:39.750Z,20.10
2022-10-24T12:57:07.024Z,20.10
2022-10-24T13:00:01.533Z,20.10
2022-10-24T13:03:23.112Z,20.10
2022-10-24T13:06:28.945Z,20.00
2022-10-24T13:09:16.501Z,20.10
2022-10-24T13:12:28.692Z,20.00
2022-10-24T13:15:37.817Z,20.00
2022-10-24T13:18:21.056Z,19.90
2022-10-24T13:21:21.457Z,19.90
2022-10-24T13:23:50.635Z,19.80
2022-10-24T13:26:49.809Z,19.80
2022-10-24T13:29:29.234Z,19.80
2022-10-24T13:32:19.967Z,19.70
2022-10-24T13:34:52.431Z,19.60
2022-10-24T13:37:44.692Z,19.60
2022-10-24T13:40:23.664Z,19.50
2022-10-24T13:43:12.781Z,19.40
2022-10-24T13:46:00.195Z,19.40
2022-10-24T13:48:38.064Z,19.30
2022-10-24T13:51:17.854Z,19.20
2022-10-24T13:54:09.379Z,19.20
2022-10-24T13:56:41.099Z,19.20
2022-10-24T13:59:38.969Z,19.10
2022-10-24T14:02:19.412Z,19.10
2022-10-24T14:04:51.169Z,19.10
2022-10-24T14:07:29.145Z,19.10
2022-10-24T14:10:14.784Z,19.00
2022-10-24T14:12:44.933Z,19.00
2022-10-24T14:15:22.349Z,19.00
2022-10-24T14:17:57.744Z,19.00
2022-10-24T14:20:37.060Z,19.00
2022-10-24T14:23:35.448Z,18.90
2022-10-24T14:26:16.220Z,18.90
2022-10-24T14:28:58.801Z,18.80
2022-10-24T14:31:38.177Z,18.70
2022-10-24T14:34:09.717Z,18.70
2022-10-24T14:36:39.703Z,18.60
2022-10-24T14:39:07.714Z,18.60
2022-10-24T14:41:41.055Z,18.60
2022-10-24T14:44:15.939Z,18.60
2022-10-24T14:46:46.745Z,18.50
2022-10-24T14:49:26.440Z,18.50
2022-10-24T14:51:59.714Z,18.50
2022-10-24T14:54:34.974Z,18.40
2022-10-24T14:57:13.702Z,18.40
2022-10-24T14:59:45.671Z,18.30
2022-10-24T15:02:37.554Z,18.30
2022-10-24T15:05:23.641Z,18.20
2022-10-24T15:08:20.308Z,18.20
2022-10-24T15:10:46.323Z,18.10
2022-10-24T15:13:25.395Z,18.10
2022-10-24T15:15:59.718Z,18.10
2022-10-24T15:18:28.774Z,18.10
2022-10-24T15:21:16.139Z,18.00
2022-10-24T15:23:59.277Z,17.90
2022-10-24T15:26:41.009Z,17.90
2022-10-24T15:29:14.413Z,17.90
2022-10-24T15:31:48.342Z,17.80
2022-10-24T15:34:24.077Z,17.80
2022-10-24T15:36:54.650Z,17.80
2022-10-24T15:39:24.917Z,17.80
2022-10-24T15:42:01.171Z,17.70
2022-10-24T15:44:31.025Z,17.70
2022-10-24T15:46:58.388Z,17.60
2022-10-24T15:49:28.006Z,17.60
2022-10-24T15:51:55.717Z,17.60
2022-10-24T15:54:23.512Z,17.50
2022-10-24T15:56:51.059Z,17.50
2022-10-24T15:59:20.209Z,17.50
2022-10-24T16:02:00.651Z,17.50
2022-10-24T16:04:29.188Z,17.40
2022-10-24T16:06:57.532Z,17.30
2022-10-24T16:09:30.214Z,17.40
2022-10-24T16:11:57.996Z,17.40
2022-10-24T16:14:30.416Z,17.30
2022-10-24T16:16:59.141Z,17.30
2022-10-24T16:19:27.342Z,17.30
2022-10-24T16:21:59.894Z,17.30
2022-10-24T16:24:28.689Z,17.30
2022-10-24T16:26:56.344Z,17.30
2022-10-24T16:29:23.772Z,17.20
2022-10-24T16:31:51.635Z,17.20
2022-10-24T16:34:19.218Z,17.20
2022-10-24T16:36:46.679Z,17.20
2022-10-24T16:39:14.677Z,17.20
2022-10-24T16:41:46.261Z,17.20
2022-10-24T16:44:15.029Z,17.10
2022-10-24T16:46:42.282Z,17.20
2022-10-24T16:49:09.694Z,17.10
2022-10-24T16:51:40.517Z,17.20
2022-10-24T16:54:10.644Z,17.20
2022-10-24T16:56:39.155Z,17.20
2022-10-24T16:59:08.371Z,17.10
2022-10-24T17:01:37.956Z,17.20
2022-10-24T17:04:08.289Z,17.20
2022-10-24T17:06:36.453Z,17.10
2022-10-24T17:09:05.220Z,17.20
2022-10-24T17:11:45.036Z,17.20
2022-10-24T17:14:16.045Z,17.20
2022-10-24T17:16:44.618Z,17.20
2022-10-24T17:19:16.672Z,17.20
2022-10-24T17:21:51.030Z,17.10
2022-10-24T17:24:25.554Z,17.10
2022-10-24T17:26:53.688Z,17.10
2022-10-24T17:29:34.861Z,17.10
2022-10-24T17:32:11.929Z,17.10
2022-10-24T17:34:41.366Z,17.10
2022-10-24T17:37:24.618Z,17.10
2022-10-24T17:40:06.076Z,17.20
2022-10-24T17:42:34.582Z,17.20
2022-10-24T17:45:02.197Z,17.20
2022-10-24T17:47:31.751Z,17.20
2022-10-24T17:49:59.244Z,17.10
2022-10-24T17:52:26.895Z,17.00
2022-10-24T17:54:54.225Z,17.00
2022-10-24T17:57:23.928Z,17.00
2022-10-24T17:59:51.403Z,17.00
2022-10-24T18:02:19.046Z,17.00
2022-10-24T18:04:46.552Z,17.10
2022-10-24T18:07:15.058Z,17.10
2022-10-24T18:09:42.621Z,17.00
2022-10-24T18:12:10.491Z,17.00
2022-10-24T18:14:42.253Z,17.10
2022-10-24T18:17:09.698Z,17.00
2022-10-24T18:19:37.092Z,17.00
2022-10-24T18:22:04.422Z,17.00
2022-10-24T18:24:31.759Z,17.00
2022-10-24T18:26:59.174Z,17.00
2022-10-24T18:29:26.527Z,17.00
2022-10-24T18:31:53.911Z,17.00
2022-10-24T18:34:21.409Z,17.00
2022-10-24T18:36:48.699Z,16.90
2022-10-24T18:39:16.192Z,17.00
2022-10-24T18:42:25.618Z,17.00
2022-10-24T18:44:53.345Z,17.10
2022-10-24T18:47:24.730Z,17.00
2022-10-24T18:49:53.700Z,17.10
2022-10-24T18:52:51.288Z,17.10
2022-10-24T18:55:25.311Z,17.10
2022-10-24T18:57:53.129Z,17.00
2022-10-24T19:00:28.625Z,17.00
2022-10-24T19:03:31.501Z,17.00
2022-10-24T19:06:26.869Z,17.00
2022-10-24T19:08:54.436Z,17.00
2022-10-24T19:11:24.199Z,17.00
2022-10-24T19:13:51.849Z,17.00
2022-10-24T19:16:24.688Z,16.90
2022-10-24T19:18:58.587Z,16.90
2022-10-24T19:21:38.522Z,16.80
2022-10-24T19:24:13.861Z,16.80
2022-10-24T19:26:45.546Z,16.90
2022-10-24T19:32:07.296Z,16.90
2022-10-24T19:34:43.152Z,16.90
2022-10-24T19:37:16.334Z,16.90
2022-10-24T19:39:54.430Z,16.90
2022-10-24T19:42:43.538Z,16.90
2022-10-24T19:45:12.382Z,17.00
2022-10-24T19:47:39.846Z,16.90
2022-10-24T19:50:08.314Z,16.90
2022-10-24T19:52:40.279Z,16.80
2022-10-24T19:55:08.064Z,16.80
2022-10-24T19:57:38.044Z,16.80
2022-10-24T20:00:06.410Z,16.70
2022-10-24T20:02:38.116Z,16.70
2022-10-24T20:05:06.216Z,16.80
2022-10-24T20:07:33.731Z,16.80
2022-10-24T20:10:01.239Z,16.80
2022-10-24T20:12:28.477Z,16.70
2022-10-24T20:14:55.912Z,16.70
2022-10-24T20:17:23.276Z,16.70
2022-10-24T20:19:50.792Z,16.70
2022-10-24T20:22:17.996Z,16.70
2022-10-24T20:24:45.334Z,16.70
2022-10-24T20:27:12.574Z,16.80
2022-10-24T20:29:40.091Z,16.80
2022-10-24T20:32:07.395Z,16.80
2022-10-24T20:34:34.700Z,16.80
2022-10-24T20:37:02.125Z,16.80
2022-10-24T20:39:29.468Z,16.80
2022-10-24T20:41:56.808Z,16.80
2022-10-24T20:44:24.247Z,16.80
2022-10-24T20:46:53.259Z,16.80
2022-10-24T20:49:20.616Z,16.80
2022-10-24T20:51:48.103Z,16.70
2022-10-24T20:54:15.831Z,16.70
2022-10-24T20:56:43.375Z,16.70
2022-10-24T20:59:14.731Z,16.60
2022-10-24T21:01:43.689Z,16.60
2022-10-24T21:04:14.659Z,16.60
2022-10-24T21:06:45.603Z,16.50
2022-10-24T21:09:13.102Z,16.50
2022-10-24T21:11:40.397Z,16.50
2022-10-24T21:14:12.707Z,16.50
2022-10-24T21:16:40.130Z,16.50
2022-10-24T21:19:07.608Z,16.50
2022-10-24T21:21:34.965Z,16.50
2022-10-24T21:24:05.787Z,16.40
2022-10-24T21:26:40.078Z,16.50
2022-10-24T21:29:20.916Z,16.40
2022-10-24T21:31:56.241Z,16.40
2022-10-24T21:34:27.811Z,16.40
2022-10-24T21:36:58.726Z,16.40
2022-10-24T21:39:26.045Z,16.40
2022-10-24T21:41:54.194Z,16.30
2022-10-24T21:44:23.465Z,16.20
2022-10-24T21:46:52.051Z,16.20
2022-10-24T21:49:19.631Z,16.10
2022-10-24T21:51:49.376Z,16.10
2022-10-24T21:54:23.695Z,16.00
2022-10-24T21:56:51.474Z,16.00
2022-10-24T21:59:21.910Z,16.00
2022-10-24T22:01:51.944Z,16.00
2022-10-24T22:04:20.654Z,15.90
2022-10-24T22:06:48.531Z,16.00
2022-10-24T22:09:21.267Z,16.00
2022-10-24T22:11:48.744Z,15.90
2022-10-24T22:14:17.790Z,15.90
2022-10-24T22:16:45.913Z,15.90
2022-10-24T22:19:14.041Z,15.90
2022-10-24T22:21:48.325Z,15.90
2022-10-24T22:24:23.200Z,15.90
2022-10-24T22:26:52.038Z,15.90
2022-10-24T22:29:23.432Z,15.80
2022-10-24T22:31:53.214Z,15.80
2022-10-24T22:34:25.490Z,15.80
2022-10-24T22:37:24.716Z,15.80
2022-10-24T22:39:54.331Z,15.80
2022-10-24T22:42:22.237Z,15.70
2022-10-24T22:44:51.055Z,15.70
2022-10-24T22:47:39.068Z,15.70
2022-10-24T22:50:43.655Z,15.60
2022-10-24T22:53:14.706Z,15.60
2022-10-24T22:55:55.342Z,15.50
2022-10-24T22:58:23.111Z,15.50
2022-10-24T23:01:17.219Z,15.40
2022-10-24T23:04:22.937Z,15.30
2022-10-24T23:07:45.949Z,15.30
2022-10-24T23:10:21.436Z,15.30
2022-10-24T23:12:50.054Z,15.20
2022-10-24T23:15:20.453Z,15.10
2022-10-24T23:17:49.035Z,15.10
2022-10-24T23:20:39.344Z,15.10
2022-10-24T23:23:17.061Z,15.10
2022-10-24T23:26:13.995Z,15.10
2022-10-24T23:29:08.075Z,15.00
2022-10-24T23:31:35.955Z,15.00
2022-10-24T23:34:03.769Z,15.00
2022-10-24T23:36:31.467Z,15.00
2022-10-24T23:38:59.263Z,15.00
2022-10-24T23:41:27.096Z,14.90
2022-10-24T23:43:54.972Z,14.90
2022-10-24T23:46:38.095Z,14.90
2022-10-24T23:49:14.313Z,14.90
2022-10-24T23:51:51.229Z,14.90
2022-10-24T23:54:25.948Z,14.80
2022-10-24T23:56:53.795Z,14.80
2022-10-24T23:59:20.979Z,14.80
